Grove, OK

6:13 AM CDT on August 05, 2015 (GMT -0500)
Grove Municipal | | Change Station
CLOSE
Current Station
Airport
Location: Grove,
Elevation: 833 ft
Nearby Weather Stations

Elev 833 ft 36.60 °N, 94.74 °W | Updated 18 minutes ago

Overcast
Overcast
72 °F
Feels Like 72 °F
N
0
Wind Variable Wind from North

Today
High -- | Low -- °F
--% Chance of Precip.
Yesterday
High -- | Low -- °F
Precip. -- in
6:28 AM 8:21 PM
Waning Gibbous, 68% visible
Pressure 29.91 in
Visibility 7.0 miles
Clouds Scattered Clouds 6500 ft
Overcast 9000 ft
Dew Point 72 °F
Humidity 100%
Rainfall 0.00 in
Snow Depth Not available.
UV 0 out of 12
Pollen 4.50 out of 12
Air Quality Not available.
Flu Activity Not available.
METAR KGMJ 051055Z AUTO 00000KT 7SM VCTS SCT065 OVC090 22/22 A2991 RMK AO2 LTG DSNT NW THRU E

More Conditions Fewer Conditions

Pressure 29.91 in
Visibility 7.0 miles
Clouds Scattered Clouds 6500 ft
Overcast 9000 ft
Dew Point 72 °F
Humidity 100%
Rainfall 0.00 in
Snow Depth Not available.
UV 0 out of 12
Pollen 4.50 out of 12
Air Quality Not available.
Flu Activity Not available.
METAR KGMJ 051055Z AUTO 00000KT 7SM VCTS SCT065 OVC090 22/22 A2991 RMK AO2 LTG DSNT NW THRU E

More Conditions Fewer Conditions

Nowcast | as of 6:05 am CDT on August 5, 2015

At 6:05 am...National Weather Service Doppler radar detected widely scattered showers and thunderstorms over Craig and Ottawa counties ...Moving east at 20 mph. Through 7:00 am...widely scattered showers and thunderstorms will continue over Craig and Ottawa counties. Brief heavy rain and dangerous lightning will be possible with these storms. Additional showers and thunderstorms will move into far northeast Oklahoma between 7 and 8 am. Some of these storms could be severe near the Oklahoma...Kansas state line with quarter size hail and damaging winds.

×

10-Day Weather Forecast

×

Almanac

Astronomy

Aug. 05, 2015 Rise Set
Actual Time
Civil Twilight
Nautical Twilight
Astronomical Twilight
Moon
Length of Visible Light
Length of Day
Tomorrow will be .
, % of the Moon is Illuminated

Today's Extremes

State Highs State Lows

Community

WunderPhotos

Upload Photos

1,844,125 photos uploaded!

WunderBlogs® & News

Nearby

Air Quality

  Air Quality AQ Index Pollutant
Not available.

Snow Depth

Station Depth Elevation

Earthquake Activity

City Distance Mag. Time & Date
Minimum magnitude displayed is 2.5.

Coastal Water Temperatures

Place Temperature

Stations

Nearby Weather Stations

Station Location Temp. Windchill Dew Point Humidity Wind Precip. Elev Updated Type